Time;durP1;ratioP1;P1;durP2;ratioP2;P2;SDS_P1;SDS_P2;PMS_P1;PMS_P2;Temp;Humidity;BMP_temperature;BMP_pressure;BME280_temperature;BME280_humidity;BME280_pressure;Samples;Min_cycle;Max_cycle;Signal;HPM_P1;HPM_P2
2022/08/27 00:01:59;;;;;;;8.93;5.78;;;;;;;;;;5053767;28;20090;-76
2022/08/27 00:04:25;;;;;;;9.98;5.93;;;;;;;;;;5054162;28;20048;-76
2022/08/27 00:06:52;;;;;;;9.70;7.03;;;;;;;;;;5052328;28;20043;-76
2022/08/27 00:09:18;;;;;;;11.52;6.85;;;;;;;;;;5037117;28;20048;-75
2022/08/27 00:11:45;;;;;;;9.88;6.80;;;;;;;;;;5036853;28;20544;-76
2022/08/27 00:14:12;;;;;;;10.75;5.95;;;;;;;;;;5053597;28;20090;-76
2022/08/27 00:16:38;;;;;;;9.35;5.72;;;;;;;;;;5036536;28;20040;-76
2022/08/27 00:19:04;;;;;;;8.40;5.68;;;;;;;;;;5053598;28;20098;-75
2022/08/27 00:21:31;;;;;;;8.07;4.47;;;;;;;;;;5036969;28;20566;-75
2022/08/27 00:23:58;;;;;;;7.97;5.43;;;;;;;;;;5054822;28;20037;-75
2022/08/27 00:26:24;;;;;;;8.85;5.82;;;;;;;;;;5054023;28;20480;-75
2022/08/27 00:28:51;;;;;;;10.52;6.40;;;;;;;;;;5053123;28;20045;-75
2022/08/27 00:31:17;;;;;;;9.80;6.15;;;;;;;;;;5053218;28;20063;-76
2022/08/27 00:33:43;;;;;;;9.43;5.82;;;;;;;;;;5052901;28;20041;-76
2022/08/27 00:36:10;;;;;;;9.63;5.78;;;;;;;;;;5053343;28;20116;-75
2022/08/27 00:38:37;;;;;;;9.88;5.78;;;;;;;;;;5052738;28;20037;-76
2022/08/27 00:41:04;;;;;;;7.85;5.68;;;;;;;;;;5036571;28;20478;-76
2022/08/27 00:43:31;;;;;;;8.43;5.80;;;;;;;;;;5052975;28;20124;-76
2022/08/27 00:46:07;;;;;;;8.73;5.18;;;;;;;;;;5052421;28;20072;-76
2022/08/27 00:48:35;;;;;;;7.88;4.95;;;;;;;;;;5053035;28;20068;-76
2022/08/27 00:51:02;;;;;;;7.03;4.32;;;;;;;;;;5052829;28;20523;-76
2022/08/27 00:53:31;;;;;;;6.85;5.15;;;;;;;;;;5053621;28;20083;-76
2022/08/27 00:56:07;;;;;;;10.07;5.40;;;;;;;;;;5052517;28;20136;-76
2022/08/27 00:58:36;;;;;;;8.07;6.13;;;;;;;;;;5068684;28;20520;-76
2022/08/27 01:01:02;;;;;;;9.77;6.75;;;;;;;;;;5053086;28;20056;-76
2022/08/27 01:03:29;;;;;;;13.02;7.13;;;;;;;;;;5052762;28;20114;-76
2022/08/27 01:05:56;;;;;;;7.65;5.85;;;;;;;;;;5052659;28;20052;-76
2022/08/27 01:08:24;;;;;;;11.60;6.25;;;;;;;;;;5052540;28;20072;-75
2022/08/27 01:10:51;;;;;;;7.95;5.80;;;;;;;;;;5035595;28;20063;-76
2022/08/27 01:13:19;;;;;;;11.88;5.72;;;;;;;;;;5019330;28;20040;-75
2022/08/27 01:15:46;;;;;;;7.32;5.30;;;;;;;;;;5052509;28;20439;-76
2022/08/27 01:18:13;;;;;;;6.97;5.07;;;;;;;;;;5052292;28;20040;-76
2022/08/27 01:20:51;;;;;;;7.40;5.07;;;;;;;;;;5051933;28;20064;-75
2022/08/27 01:23:40;;;;;;;7.60;5.43;;;;;;;;;;5052510;28;20045;-75
2022/08/27 01:26:08;;;;;;;9.48;5.63;;;;;;;;;;5052088;28;20067;-75
2022/08/27 01:28:35;;;;;;;8.07;6.07;;;;;;;;;;5035585;28;20093;-76
2022/08/27 01:31:02;;;;;;;8.45;5.78;;;;;;;;;;5051823;28;20099;-76
2022/08/27 01:33:28;;;;;;;9.57;6.20;;;;;;;;;;5052095;28;20124;-75
2022/08/27 01:35:54;;;;;;;10.57;6.35;;;;;;;;;;5019455;28;20538;-76
2022/08/27 01:38:22;;;;;;;10.32;6.82;;;;;;;;;;5052512;28;20562;-76
2022/08/27 01:40:48;;;;;;;8.25;5.35;;;;;;;;;;5051716;28;20458;-75
2022/08/27 01:43:14;;;;;;;9.23;5.40;;;;;;;;;;5035490;28;20473;-75
2022/08/27 01:45:44;;;;;;;8.52;5.57;;;;;;;;;;5052094;28;20052;-76
2022/08/27 01:48:10;;;;;;;8.93;4.88;;;;;;;;;;5051858;28;20044;-75
2022/08/27 01:50:37;;;;;;;8.70;6.15;;;;;;;;;;5035310;28;20056;-75
2022/08/27 01:53:06;;;;;;;7.88;5.43;;;;;;;;;;5051567;28;20404;-75
2022/08/27 01:55:32;;;;;;;7.93;6.10;;;;;;;;;;5051708;28;20098;-75
2022/08/27 01:57:58;;;;;;;8.02;5.63;;;;;;;;;;5035019;28;20419;-75
2022/08/27 02:00:26;;;;;;;9.75;6.53;;;;;;;;;;5051867;28;20091;-75
2022/08/27 02:02:52;;;;;;;7.40;5.70;;;;;;;;;;5050109;28;20109;-75
2022/08/27 02:05:18;;;;;;;9.77;6.22;;;;;;;;;;5050222;28;20082;-75
2022/08/27 02:07:45;;;;;;;9.75;5.90;;;;;;;;;;5051023;28;20044;-76
2022/08/27 02:10:12;;;;;;;8.00;5.32;;;;;;;;;;5051514;28;20041;-75
2022/08/27 02:12:38;;;;;;;9.38;5.40;;;;;;;;;;5051562;28;20047;-75
2022/08/27 02:15:05;;;;;;;9.95;6.22;;;;;;;;;;5051134;28;20489;-75
2022/08/27 02:17:31;;;;;;;10.00;5.75;;;;;;;;;;5052581;28;20029;-75
2022/08/27 02:19:59;;;;;;;9.18;6.40;;;;;;;;;;5034507;28;20041;-75
2022/08/27 02:22:25;;;;;;;9.68;6.45;;;;;;;;;;5035052;28;20045;-75
2022/08/27 02:24:52;;;;;;;8.02;6.03;;;;;;;;;;5051309;28;20037;-75
2022/08/27 02:27:19;;;;;;;9.90;6.82;;;;;;;;;;5034708;28;20039;-76
2022/08/27 02:29:46;;;;;;;10.15;7.38;;;;;;;;;;5050963;28;20036;-75
2022/08/27 02:32:12;;;;;;;9.70;6.22;;;;;;;;;;5034450;28;20044;-76
2022/08/27 02:34:38;;;;;;;9.27;6.72;;;;;;;;;;5051178;28;20076;-75
2022/08/27 02:37:06;;;;;;;10.48;6.40;;;;;;;;;;5050541;28;20041;-76
2022/08/27 02:39:32;;;;;;;9.30;7.50;;;;;;;;;;5051453;28;20084;-75
2022/08/27 02:41:58;;;;;;;10.45;6.53;;;;;;;;;;5050656;28;20041;-75
2022/08/27 02:44:24;;;;;;;11.73;7.50;;;;;;;;;;5051306;28;20032;-75
2022/08/27 02:46:50;;;;;;;10.52;7.32;;;;;;;;;;5034701;28;20041;-75
2022/08/27 02:49:17;;;;;;;14.25;9.48;;;;;;;;;;5050983;28;20036;-76
2022/08/27 02:51:43;;;;;;;16.80;10.10;;;;;;;;;;5052332;28;20053;-76
2022/08/27 02:54:10;;;;;;;12.60;9.45;;;;;;;;;;5050788;28;20436;-75
2022/08/27 02:56:36;;;;;;;13.88;9.13;;;;;;;;;;5051447;28;20374;-75
2022/08/27 02:59:03;;;;;;;12.38;8.43;;;;;;;;;;5033797;28;20048;-75
2022/08/27 03:01:29;;;;;;;11.35;7.03;;;;;;;;;;5034359;28;20087;-76
2022/08/27 03:03:56;;;;;;;10.48;6.45;;;;;;;;;;5049989;28;20041;-75
2022/08/27 03:06:22;;;;;;;10.13;7.18;;;;;;;;;;5050795;28;20119;-76
2022/08/27 03:08:48;;;;;;;7.15;5.75;;;;;;;;;;5050689;28;20051;-76
2022/08/27 03:11:14;;;;;;;10.43;6.72;;;;;;;;;;5034394;28;20551;-75
2022/08/27 03:13:40;;;;;;;9.05;6.43;;;;;;;;;;5033959;28;20072;-76
2022/08/27 03:16:07;;;;;;;9.70;7.22;;;;;;;;;;5050287;28;20045;-75
2022/08/27 03:18:33;;;;;;;10.75;7.82;;;;;;;;;;5050528;28;20041;-76
2022/08/27 03:21:00;;;;;;;11.68;8.40;;;;;;;;;;5050178;28;20044;-75
2022/08/27 03:23:28;;;;;;;14.60;9.80;;;;;;;;;;5050579;28;20033;-76
2022/08/27 03:25:55;;;;;;;10.82;7.25;;;;;;;;;;5050428;28;20516;-75
2022/08/27 03:28:24;;;;;;;13.10;7.97;;;;;;;;;;5050554;28;20041;-76
2022/08/27 03:30:59;;;;;;;9.65;6.95;;;;;;;;;;5033936;28;20049;-75
2022/08/27 03:33:26;;;;;;;10.27;7.65;;;;;;;;;;5050304;28;20128;-76
2022/08/27 03:35:52;;;;;;;9.80;7.55;;;;;;;;;;5050193;28;20045;-75
2022/08/27 03:38:18;;;;;;;10.95;7.97;;;;;;;;;;5033989;28;20064;-76
2022/08/27 03:40:44;;;;;;;13.00;7.63;;;;;;;;;;5034606;28;20045;-75
2022/08/27 03:43:14;;;;;;;12.20;8.63;;;;;;;;;;5054094;28;20404;-76
2022/08/27 03:45:44;;;;;;;12.73;8.23;;;;;;;;;;5037497;28;20033;-75
2022/08/27 03:48:11;;;;;;;13.05;8.23;;;;;;;;;;5037606;28;20536;-75
2022/08/27 03:50:38;;;;;;;9.38;7.72;;;;;;;;;;5037508;28;20052;-75
2022/08/27 03:53:04;;;;;;;8.68;6.90;;;;;;;;;;5053777;28;20459;-75
2022/08/27 03:55:30;;;;;;;13.95;7.80;;;;;;;;;;5020612;28;20045;-75
2022/08/27 03:57:56;;;;;;;8.55;6.63;;;;;;;;;;5053918;28;20576;-75
2022/08/27 04:00:26;;;;;;;11.80;8.10;;;;;;;;;;5037171;28;20056;-75
2022/08/27 04:02:53;;;;;;;10.27;6.85;;;;;;;;;;5035015;28;20052;-75
2022/08/27 04:05:19;;;;;;;10.55;7.10;;;;;;;;;;5050679;28;20086;-75
2022/08/27 04:07:46;;;;;;;10.52;7.22;;;;;;;;;;5053542;28;20052;-75
2022/08/27 04:10:13;;;;;;;10.32;7.32;;;;;;;;;;5053153;28;20064;-75
2022/08/27 04:12:39;;;;;;;11.20;7.93;;;;;;;;;;5053667;28;20082;-76
2022/08/27 04:15:05;;;;;;;8.82;7.20;;;;;;;;;;5054277;28;20028;-75
2022/08/27 04:17:31;;;;;;;11.85;8.02;;;;;;;;;;5037457;28;20489;-75
2022/08/27 04:20:00;;;;;;;11.63;7.95;;;;;;;;;;5052831;28;20045;-75
2022/08/27 04:22:27;;;;;;;12.38;8.45;;;;;;;;;;5053430;28;20120;-76
2022/08/27 04:24:53;;;;;;;13.18;9.15;;;;;;;;;;5053193;28;20045;-76
2022/08/27 04:27:20;;;;;;;13.50;7.85;;;;;;;;;;5053132;28;20167;-75
2022/08/27 04:29:46;;;;;;;10.82;7.13;;;;;;;;;;5053596;28;20527;-75
2022/08/27 04:32:12;;;;;;;11.55;7.18;;;;;;;;;;5053172;28;20373;-76
2022/08/27 04:34:39;;;;;;;11.65;7.82;;;;;;;;;;5053233;28;20128;-75
2022/08/27 04:37:05;;;;;;;12.20;8.07;;;;;;;;;;5052952;28;20047;-76
2022/08/27 04:39:32;;;;;;;11.10;7.85;;;;;;;;;;5053366;28;20552;-76
2022/08/27 04:41:59;;;;;;;11.23;8.55;;;;;;;;;;5053007;28;20045;-75
2022/08/27 04:44:26;;;;;;;12.95;7.88;;;;;;;;;;5053289;28;20068;-76
2022/08/27 04:46:57;;;;;;;13.35;7.20;;;;;;;;;;5036539;28;20037;-75
2022/08/27 04:49:23;;;;;;;7.85;6.75;;;;;;;;;;5035939;28;20124;-76
2022/08/27 04:51:49;;;;;;;11.32;7.60;;;;;;;;;;5052652;28;20091;-75
2022/08/27 04:54:15;;;;;;;11.60;7.93;;;;;;;;;;5035769;28;20055;-75
2022/08/27 04:56:42;;;;;;;9.35;7.13;;;;;;;;;;5052906;28;20051;-76
2022/08/27 04:59:09;;;;;;;11.10;8.55;;;;;;;;;;5052678;28;20501;-75
2022/08/27 05:01:36;;;;;;;9.88;7.90;;;;;;;;;;5052892;28;20044;-75
2022/08/27 05:04:02;;;;;;;11.90;8.68;;;;;;;;;;5052682;28;20086;-75
2022/08/27 05:06:28;;;;;;;13.32;8.65;;;;;;;;;;5052543;28;20029;-75
2022/08/27 05:08:55;;;;;;;9.70;7.47;;;;;;;;;;5052574;28;20044;-75
2022/08/27 05:11:21;;;;;;;10.45;7.65;;;;;;;;;;5052296;28;20041;-75
2022/08/27 05:13:48;;;;;;;11.07;7.68;;;;;;;;;;5052829;28;20115;-75
2022/08/27 05:16:17;;;;;;;12.93;7.68;;;;;;;;;;5052399;28;20516;-75
2022/08/27 05:18:43;;;;;;;11.10;8.00;;;;;;;;;;5052631;28;20044;-76
2022/08/27 05:21:15;;;;;;;11.45;8.00;;;;;;;;;;5052100;28;20048;-75
2022/08/27 05:23:41;;;;;;;9.05;7.20;;;;;;;;;;5052777;28;20404;-76
2022/08/27 05:26:07;;;;;;;9.00;6.70;;;;;;;;;;5052316;28;20464;-76
2022/08/27 05:28:33;;;;;;;12.70;6.85;;;;;;;;;;5052180;28;20048;-76
2022/08/27 05:31:04;;;;;;;9.80;5.60;;;;;;;;;;5052880;28;20438;-76
2022/08/27 05:33:30;;;;;;;9.43;5.35;;;;;;;;;;5035463;28;20053;-75
2022/08/27 05:35:57;;;;;;;7.43;5.55;;;;;;;;;;5052088;28;20048;-76
2022/08/27 05:38:25;;;;;;;8.52;5.43;;;;;;;;;;5051767;28;20052;-76
2022/08/27 05:41:02;;;;;;;7.40;5.60;;;;;;;;;;5051827;28;20068;-77
2022/08/27 05:43:28;;;;;;;7.93;5.05;;;;;;;;;;5052064;28;20045;-75
2022/08/27 05:45:54;;;;;;;9.68;5.97;;;;;;;;;;5035100;28;20029;-76
2022/08/27 05:48:21;;;;;;;8.75;5.80;;;;;;;;;;5051504;28;20049;-76
2022/08/27 05:50:47;;;;;;;8.32;5.50;;;;;;;;;;5035209;28;20081;-76
2022/08/27 05:53:13;;;;;;;8.57;5.50;;;;;;;;;;5051524;28;20500;-76
2022/08/27 05:55:40;;;;;;;6.90;5.55;;;;;;;;;;5051991;28;20045;-76
2022/08/27 05:58:07;;;;;;;8.52;5.95;;;;;;;;;;5051992;28;20049;-76
2022/08/27 06:03:18;;;;;;;9.35;5.82;;;;;;;;;;5051035;28;20033;-76
2022/08/27 06:05:44;;;;;;;9.82;6.00;;;;;;;;;;5051871;28;20128;-76
2022/08/27 06:08:10;;;;;;;9.43;5.95;;;;;;;;;;5051133;28;20085;-76
2022/08/27 06:10:39;;;;;;;10.30;5.60;;;;;;;;;;5052775;28;20048;-76
2022/08/27 06:13:05;;;;;;;9.57;5.93;;;;;;;;;;5052823;28;20060;-76
2022/08/27 06:15:31;;;;;;;9.93;5.30;;;;;;;;;;5052024;28;20123;-76
2022/08/27 06:17:57;;;;;;;7.65;5.28;;;;;;;;;;5051711;28;20052;-76
2022/08/27 06:20:23;;;;;;;8.68;5.30;;;;;;;;;;5051131;28;20044;-76
2022/08/27 06:22:50;;;;;;;8.18;4.88;;;;;;;;;;5051449;28;20051;-76
2022/08/27 06:25:16;;;;;;;9.50;5.32;;;;;;;;;;5051271;28;20051;-76
2022/08/27 06:27:42;;;;;;;7.78;5.13;;;;;;;;;;5046330;28;20056;-76
2022/08/27 06:30:09;;;;;;;7.85;5.40;;;;;;;;;;5046930;28;20045;-75
2022/08/27 06:32:35;;;;;;;9.00;5.47;;;;;;;;;;5052164;28;20508;-75
2022/08/27 06:35:01;;;;;;;8.68;4.93;;;;;;;;;;5051448;28;20485;-76
2022/08/27 06:37:29;;;;;;;8.63;4.88;;;;;;;;;;5050916;28;20481;-77
2022/08/27 06:39:55;;;;;;;8.02;4.57;;;;;;;;;;5051168;28;20056;-76
2022/08/27 06:42:21;;;;;;;7.78;4.25;;;;;;;;;;5034005;28;20033;-76
2022/08/27 06:44:47;;;;;;;8.50;4.40;;;;;;;;;;5034602;28;20126;-76
2022/08/27 06:47:13;;;;;;;5.05;3.90;;;;;;;;;;5034131;28;20037;-76
2022/08/27 06:49:40;;;;;;;6.03;4.22;;;;;;;;;;5051075;28;20514;-76
2022/08/27 06:52:06;;;;;;;6.57;3.78;;;;;;;;;;5034435;28;20056;-76
2022/08/27 06:54:32;;;;;;;6.68;3.88;;;;;;;;;;5050446;28;20045;-76
2022/08/27 06:56:59;;;;;;;6.28;3.90;;;;;;;;;;5050644;28;20048;-76
2022/08/27 06:59:25;;;;;;;7.57;3.42;;;;;;;;;;5050521;28;20382;-76
2022/08/27 07:01:51;;;;;;;13.57;4.00;;;;;;;;;;5034260;28;20107;-76
2022/08/27 07:04:19;;;;;;;8.77;3.50;;;;;;;;;;5051680;28;20523;-76
2022/08/27 07:06:45;;;;;;;5.88;3.40;;;;;;;;;;5050633;28;20047;-76
2022/08/27 07:09:11;;;;;;;5.75;3.30;;;;;;;;;;5050646;28;20049;-76
2022/08/27 07:11:38;;;;;;;7.28;3.00;;;;;;;;;;5050425;28;20470;-76
2022/08/27 07:14:05;;;;;;;6.45;2.40;;;;;;;;;;5050762;28;20045;-76
2022/08/27 07:16:31;;;;;;;6.15;2.20;;;;;;;;;;5037569;28;20045;-77
2022/08/27 07:18:59;;;;;;;5.60;1.80;;;;;;;;;;5037939;28;20063;-76
2022/08/27 07:21:25;;;;;;;7.03;1.98;;;;;;;;;;5054493;28;20041;-77
2022/08/27 07:23:52;;;;;;;5.97;2.20;;;;;;;;;;5037727;28;20164;-76
2022/08/27 07:26:19;;;;;;;5.68;1.92;;;;;;;;;;5054516;28;20504;-76
2022/08/27 07:28:46;;;;;;;5.55;2.58;;;;;;;;;;5054549;28;20037;-76
2022/08/27 07:31:14;;;;;;;5.95;1.70;;;;;;;;;;5054733;28;20489;-76
2022/08/27 07:33:40;;;;;;;6.93;1.65;;;;;;;;;;5054113;28;20052;-77
2022/08/27 07:36:07;;;;;;;8.60;2.00;;;;;;;;;;5054566;28;20045;-77
2022/08/27 07:38:33;;;;;;;4.85;1.80;;;;;;;;;;5053965;28;20542;-76
2022/08/27 07:41:00;;;;;;;4.65;1.85;;;;;;;;;;5054525;28;20235;-76
2022/08/27 07:46:10;;;;;;;5.00;1.50;;;;;;;;;;5057338;28;20049;-77
2022/08/27 07:48:36;;;;;;;5.88;1.70;;;;;;;;;;5053945;28;20485;-77
2022/08/27 07:51:04;;;;;;;6.18;1.70;;;;;;;;;;5054275;28;20497;-76
2022/08/27 07:53:31;;;;;;;5.78;1.83;;;;;;;;;;5054064;28;20076;-76
2022/08/27 07:56:05;;;;;;;5.10;1.42;;;;;;;;;;5054302;28;20081;-76
2022/08/27 07:58:32;;;;;;;4.30;1.48;;;;;;;;;;5036980;28;20053;-77
2022/08/27 08:00:58;;;;;;;4.93;1.50;;;;;;;;;;5053843;28;20045;-77
2022/08/27 08:03:24;;;;;;;5.15;1.45;;;;;;;;;;5053517;28;20115;-76
2022/08/27 08:05:52;;;;;;;4.97;1.40;;;;;;;;;;5053826;28;20045;-77
2022/08/27 08:08:21;;;;;;;7.50;1.50;;;;;;;;;;5037876;28;20396;-76
2022/08/27 08:10:48;;;;;;;4.95;1.63;;;;;;;;;;5054188;28;20076;-76
2022/08/27 08:13:15;;;;;;;8.68;1.50;;;;;;;;;;5055319;28;20400;-77
2022/08/27 08:15:43;;;;;;;5.28;1.50;;;;;;;;;;5054173;28;20449;-77
2022/08/27 08:18:09;;;;;;;5.15;1.40;;;;;;;;;;5053628;28;20072;-77
2022/08/27 08:20:35;;;;;;;4.70;1.70;;;;;;;;;;5036565;28;20041;-77
2022/08/27 08:23:01;;;;;;;4.03;1.27;;;;;;;;;;5037149;28;20103;-76
2022/08/27 08:25:28;;;;;;;4.43;1.55;;;;;;;;;;5053536;28;20464;-78
2022/08/27 08:27:54;;;;;;;5.38;1.27;;;;;;;;;;5054054;28;20079;-76
2022/08/27 08:30:21;;;;;;;3.72;1.30;;;;;;;;;;5053550;28;20052;-77
2022/08/27 08:32:47;;;;;;;4.10;1.20;;;;;;;;;;5036709;28;20045;-77
2022/08/27 08:35:14;;;;;;;6.15;1.33;;;;;;;;;;5053240;28;20041;-77
2022/08/27 08:37:42;;;;;;;6.00;1.52;;;;;;;;;;5053466;28;20508;-77
2022/08/27 08:40:09;;;;;;;5.35;1.40;;;;;;;;;;5053251;28;20428;-77
2022/08/27 08:42:39;;;;;;;9.15;1.60;;;;;;;;;;5036478;28;20465;-77
2022/08/27 08:45:06;;;;;;;6.07;1.40;;;;;;;;;;5053216;28;20033;-77
2022/08/27 08:47:47;;;;;;;6.43;1.63;;;;;;;;;;5052739;28;20037;-77
2022/08/27 08:50:27;;;;;;;9.77;1.83;;;;;;;;;;5052895;28;20088;-77
2022/08/27 08:52:58;;;;;;;5.07;1.30;;;;;;;;;;5053371;28;20057;-77
2022/08/27 08:55:38;;;;;;;5.28;1.35;;;;;;;;;;5036490;28;20508;-77
2022/08/27 08:58:23;;;;;;;6.70;1.40;;;;;;;;;;5040344;28;20098;-77
2022/08/27 09:00:56;;;;;;;7.10;1.30;;;;;;;;;;5035516;28;20045;-76
2022/08/27 09:03:22;;;;;;;5.03;1.30;;;;;;;;;;5035915;28;20572;-77
2022/08/27 09:05:55;;;;;;;7.60;1.52;;;;;;;;;;5052876;28;20520;-77
2022/08/27 09:08:29;;;;;;;8.18;1.33;;;;;;;;;;5036828;28;20032;-75
2022/08/27 09:11:05;;;;;;;7.00;1.42;;;;;;;;;;5053744;28;20130;-76
2022/08/27 09:13:41;;;;;;;7.15;1.30;;;;;;;;;;5035733;28;20041;-76
2022/08/27 09:16:07;;;;;;;6.30;1.42;;;;;;;;;;5053334;28;20378;-77
2022/08/27 09:18:38;;;;;;;4.78;1.10;;;;;;;;;;5035936;28;20067;-76
2022/08/27 09:21:08;;;;;;;8.45;1.38;;;;;;;;;;5035998;28;20112;-77
2022/08/27 09:23:51;;;;;;;7.88;1.98;;;;;;;;;;5035682;28;20187;-77
2022/08/27 09:26:24;;;;;;;3.83;1.10;;;;;;;;;;5052557;28;20537;-76
2022/08/27 09:31:41;;;;;;;4.28;1.05;;;;;;;;;;5051860;28;20118;-75
2022/08/27 09:34:07;;;;;;;5.43;1.40;;;;;;;;;;5052352;28;20404;-77
2022/08/27 09:36:34;;;;;;;6.13;1.13;;;;;;;;;;5035734;28;20045;-77
2022/08/27 09:39:01;;;;;;;8.57;1.75;;;;;;;;;;5050900;28;20052;-75
2022/08/27 09:41:28;;;;;;;7.35;1.30;;;;;;;;;;5035481;28;20037;-76
2022/08/27 09:43:57;;;;;;;5.97;1.10;;;;;;;;;;5051819;28;20049;-76
2022/08/27 09:46:24;;;;;;;4.20;0.95;;;;;;;;;;5051844;28;20033;-76
2022/08/27 09:48:51;;;;;;;5.75;1.30;;;;;;;;;;5034925;28;20041;-75
2022/08/27 09:51:20;;;;;;;5.40;1.30;;;;;;;;;;5051762;28;20060;-76
2022/08/27 09:53:49;;;;;;;5.43;1.27;;;;;;;;;;5051518;28;20045;-75
2022/08/27 09:56:28;;;;;;;5.15;1.10;;;;;;;;;;5035356;28;20079;-75
2022/08/27 09:59:14;;;;;;;4.68;1.20;;;;;;;;;;5051014;28;20045;-74
2022/08/27 10:01:52;;;;;;;4.28;1.13;;;;;;;;;;5047639;28;20057;-75
2022/08/27 10:04:24;;;;;;;4.85;1.25;;;;;;;;;;5051698;28;20044;-77
2022/08/27 10:06:51;;;;;;;4.80;0.90;;;;;;;;;;5051572;28;20049;-76
2022/08/27 10:09:17;;;;;;;3.83;1.17;;;;;;;;;;5051862;28;20452;-76
2022/08/27 10:12:09;;;;;;;6.15;1.30;;;;;;;;;;5051246;28;20040;-76
2022/08/27 10:14:44;;;;;;;4.47;0.90;;;;;;;;;;5050472;28;20080;-76
2022/08/27 10:17:13;;;;;;;3.93;0.90;;;;;;;;;;5035077;28;20095;-76
2022/08/27 10:19:42;;;;;;;5.10;1.23;;;;;;;;;;5051268;28;20353;-75
2022/08/27 10:22:17;;;;;;;5.72;1.10;;;;;;;;;;5051480;28;20041;-75
2022/08/27 10:24:58;;;;;;;3.97;1.00;;;;;;;;;;5051109;28;20080;-76
2022/08/27 10:27:42;;;;;;;2.70;1.10;;;;;;;;;;5035496;28;20037;-76
2022/08/27 10:30:11;;;;;;;3.63;1.08;;;;;;;;;;5051790;28;20045;-76
2022/08/27 10:32:43;;;;;;;5.82;1.20;;;;;;;;;;5035717;28;20048;-76
2022/08/27 10:35:09;;;;;;;5.32;1.25;;;;;;;;;;5051531;28;20501;-76
2022/08/27 10:37:54;;;;;;;5.20;1.23;;;;;;;;;;5051885;28;20041;-76
2022/08/27 10:40:23;;;;;;;6.95;1.20;;;;;;;;;;5051342;28;20493;-76
2022/08/27 10:42:49;;;;;;;4.57;1.30;;;;;;;;;;5051328;28;20033;-76
2022/08/27 10:45:34;;;;;;;16.52;8.27;;;;;;;;;;5051161;28;20119;-76
2022/08/27 10:48:15;;;;;;;5.53;1.50;;;;;;;;;;5039675;28;20146;-76
2022/08/27 10:50:41;;;;;;;4.75;1.60;;;;;;;;;;5050404;28;20132;-76
2022/08/27 10:53:26;;;;;;;6.07;1.83;;;;;;;;;;5051314;28;20048;-76
2022/08/27 10:55:57;;;;;;;5.47;1.20;;;;;;;;;;5050950;28;20122;-76
2022/08/27 10:58:43;;;;;;;6.13;1.50;;;;;;;;;;5051576;28;20157;-76
2022/08/27 11:01:12;;;;;;;5.68;1.40;;;;;;;;;;5050587;28;20405;-76
2022/08/27 11:03:38;;;;;;;6.40;1.10;;;;;;;;;;5050941;28;20044;-76
2022/08/27 11:06:12;;;;;;;5.18;1.40;;;;;;;;;;5050262;28;20037;-76
2022/08/27 11:08:40;;;;;;;7.07;1.33;;;;;;;;;;5051121;28;20582;-76
2022/08/27 11:11:15;;;;;;;5.13;1.00;;;;;;;;;;5033822;28;20037;-77
2022/08/27 11:13:45;;;;;;;3.87;1.13;;;;;;;;;;5051976;28;20041;-76
2022/08/27 11:16:22;;;;;;;7.03;1.23;;;;;;;;;;5050692;28;20098;-76
2022/08/27 11:18:50;;;;;;;6.82;1.20;;;;;;;;;;5050574;28;20167;-77
2022/08/27 11:21:19;;;;;;;4.60;1.13;;;;;;;;;;5051695;28;20120;-76
2022/08/27 11:23:48;;;;;;;4.15;1.10;;;;;;;;;;5050637;28;20056;-76
2022/08/27 11:26:15;;;;;;;8.13;1.50;;;;;;;;;;5051002;28;20128;-76
2022/08/27 11:28:43;;;;;;;6.03;1.20;;;;;;;;;;5051129;28;20073;-77
2022/08/27 11:31:13;;;;;;;6.63;1.10;;;;;;;;;;5034547;28;20045;-77
2022/08/27 11:33:43;;;;;;;5.80;0.98;;;;;;;;;;5051892;28;20052;-76
2022/08/27 11:36:18;;;;;;;4.95;1.10;;;;;;;;;;5050612;28;20044;-77
2022/08/27 11:39:04;;;;;;;4.80;1.15;;;;;;;;;;5051725;28;20044;-77
2022/08/27 11:41:49;;;;;;;6.03;1.27;;;;;;;;;;5051462;28;20076;-76
2022/08/27 11:44:19;;;;;;;4.60;1.00;;;;;;;;;;5050769;28;20068;-77
2022/08/27 11:46:47;;;;;;;6.68;1.00;;;;;;;;;;5050469;28;20033;-76
2022/08/27 11:49:42;;;;;;;3.45;0.98;;;;;;;;;;5050465;28;20040;-76
2022/08/27 11:52:08;;;;;;;4.95;0.95;;;;;;;;;;5050238;28;20497;-75
2022/08/27 11:55:07;;;;;;;6.78;1.02;;;;;;;;;;5050826;28;20037;-75
2022/08/27 11:57:35;;;;;;;4.47;1.00;;;;;;;;;;5039881;28;20084;-76
2022/08/27 12:00:17;;;;;;;5.10;1.10;;;;;;;;;;5051426;28;20126;-76
2022/08/27 12:02:43;;;;;;;5.35;0.98;;;;;;;;;;5052807;28;20029;-76
2022/08/27 12:05:29;;;;;;;5.90;0.98;;;;;;;;;;5054054;28;20037;-76
2022/08/27 12:07:56;;;;;;;5.03;1.10;;;;;;;;;;5004315;28;20053;-77
2022/08/27 12:10:41;;;;;;;5.07;1.17;;;;;;;;;;5054482;28;20054;-77
2022/08/27 12:13:13;;;;;;;2.97;0.80;;;;;;;;;;5054030;28;20094;-77
2022/08/27 12:15:58;;;;;;;3.70;1.15;;;;;;;;;;5037318;28;20071;-77
2022/08/27 12:18:25;;;;;;;4.25;1.05;;;;;;;;;;5054028;28;20045;-77
2022/08/27 12:21:13;;;;;;;4.57;0.90;;;;;;;;;;5053609;28;20041;-77
2022/08/27 12:24:00;;;;;;;4.65;0.90;;;;;;;;;;5037142;28;20049;-77
2022/08/27 12:26:53;;;;;;;5.22;1.10;;;;;;;;;;5054128;28;20071;-76
2022/08/27 12:29:23;;;;;;;3.88;1.10;;;;;;;;;;5052826;28;20097;-76
2022/08/27 12:31:52;;;;;;;9.55;1.23;;;;;;;;;;5053398;28;20049;-76
2022/08/27 12:34:20;;;;;;;3.92;1.10;;;;;;;;;;5053722;28;20043;-75
2022/08/27 12:36:51;;;;;;;3.97;1.40;;;;;;;;;;5053695;28;20481;-76
2022/08/27 12:39:18;;;;;;;7.18;1.10;;;;;;;;;;5040302;28;20037;-76
2022/08/27 12:41:46;;;;;;;3.40;0.90;;;;;;;;;;5053654;28;20068;-76
2022/08/27 12:44:24;;;;;;;4.10;0.80;;;;;;;;;;5053869;28;20183;-76
2022/08/27 12:47:02;;;;;;;5.00;0.90;;;;;;;;;;5036562;28;20047;-76
2022/08/27 12:49:47;;;;;;;6.88;1.08;;;;;;;;;;5039566;28;20167;-77
2022/08/27 12:52:19;;;;;;;7.03;1.08;;;;;;;;;;5052616;28;20077;-77
2022/08/27 12:54:58;;;;;;;5.63;1.08;;;;;;;;;;5036843;28;20051;-77
2022/08/27 12:57:35;;;;;;;4.00;0.88;;;;;;;;;;5036300;28;20044;-77
2022/08/27 13:00:17;;;;;;;4.22;0.90;;;;;;;;;;5042949;28;20057;-77
2022/08/27 13:02:52;;;;;;;3.60;1.15;;;;;;;;;;5050481;28;20489;-77
2022/08/27 13:05:19;;;;;;;;;;;;;;;;;;5053327;28;20033;-78
2022/08/27 13:07:49;;;;;;;5.03;1.40;;;;;;;;;;5036465;28;20301;-77
2022/08/27 13:10:20;;;;;;;5.95;1.15;;;;;;;;;;5052215;28;20060;-76
2022/08/27 13:12:48;;;;;;;3.33;1.10;;;;;;;;;;5052173;28;20051;-77
2022/08/27 13:15:15;;;;;;;5.78;1.40;;;;;;;;;;5053553;28;20079;-77
2022/08/27 13:17:43;;;;;;;5.88;1.50;;;;;;;;;;5052547;28;20445;-77
2022/08/27 13:20:35;;;;;;;6.22;1.50;;;;;;;;;;5052019;28;20124;-76
2022/08/27 13:23:01;;;;;;;7.88;1.58;;;;;;;;;;5051075;28;20056;-76
2022/08/27 13:25:36;;;;;;;6.30;1.27;;;;;;;;;;5019603;28;20045;-76
2022/08/27 13:28:12;;;;;;;2.83;1.00;;;;;;;;;;5035783;28;20064;-76
2022/08/27 13:30:41;;;;;;;5.07;1.13;;;;;;;;;;5035560;28;20056;-77
2022/08/27 13:33:10;;;;;;;3.60;1.00;;;;;;;;;;5052944;28;20120;-76
2022/08/27 13:35:36;;;;;;;5.82;1.17;;;;;;;;;;5052459;28;20551;-76
2022/08/27 13:38:03;;;;;;;4.50;0.90;;;;;;;;;;5018805;28;20055;-76
2022/08/27 13:40:49;;;;;;;4.93;1.00;;;;;;;;;;5052094;28;20095;-76
2022/08/27 13:43:15;;;;;;;6.43;1.20;;;;;;;;;;5034368;28;20068;-77
2022/08/27 13:45:42;;;;;;;6.22;1.10;;;;;;;;;;5035375;28;20039;-76
2022/08/27 13:48:10;;;;;;;5.75;1.30;;;;;;;;;;5051431;28;20095;-76
2022/08/27 13:50:36;;;;;;;6.32;1.25;;;;;;;;;;5051668;28;20128;-76
2022/08/27 13:55:54;;;;;;;6.07;0.95;;;;;;;;;;5052069;28;20041;-77
2022/08/27 13:58:25;;;;;;;3.70;0.80;;;;;;;;;;5051453;28;20080;-76
2022/08/27 14:00:51;;;;;;;4.90;1.10;;;;;;;;;;5051564;28;20044;-76
2022/08/27 14:03:34;;;;;;;4.93;0.82;;;;;;;;;;5034559;28;20378;-76
2022/08/27 14:06:00;;;;;;;2.78;0.80;;;;;;;;;;5051351;28;20076;-76
2022/08/27 14:08:32;;;;;;;4.88;0.90;;;;;;;;;;5034993;28;20497;-76
2022/08/27 14:11:00;;;;;;;4.20;0.90;;;;;;;;;;5052778;28;20045;-76
2022/08/27 14:13:27;;;;;;;8.35;1.20;;;;;;;;;;5051159;28;20127;-76
2022/08/27 14:15:58;;;;;;;4.68;1.00;;;;;;;;;;5051505;28;20072;-76
2022/08/27 14:18:32;;;;;;;7.18;1.00;;;;;;;;;;5034576;28;20056;-76
2022/08/27 14:20:59;;;;;;;5.40;1.23;;;;;;;;;;5051352;28;20378;-76
2022/08/27 14:23:25;;;;;;;7.82;1.30;;;;;;;;;;5050722;28;20039;-76
2022/08/27 14:25:57;;;;;;;3.58;0.93;;;;;;;;;;5050628;28;20123;-76
2022/08/27 14:28:23;;;;;;;5.40;1.27;;;;;;;;;;5034093;28;20120;-76
2022/08/27 14:30:49;;;;;;;3.47;0.88;;;;;;;;;;5051415;28;20072;-76
2022/08/27 14:33:16;;;;;;;6.53;1.00;;;;;;;;;;5050679;28;20048;-76
2022/08/27 14:35:43;;;;;;;5.07;1.23;;;;;;;;;;5018600;28;20055;-75
2022/08/27 14:38:16;;;;;;;4.55;0.93;;;;;;;;;;5050930;28;20524;-76
2022/08/27 14:40:43;;;;;;;5.68;0.98;;;;;;;;;;5051104;28;20053;-75
2022/08/27 14:43:09;;;;;;;4.70;1.20;;;;;;;;;;5050863;28;20052;-76
2022/08/27 14:45:36;;;;;;;3.35;1.10;;;;;;;;;;5051252;28;20573;-76
2022/08/27 14:48:04;;;;;;;4.70;1.30;;;;;;;;;;5050870;28;20134;-76
2022/08/27 14:50:31;;;;;;;5.68;1.20;;;;;;;;;;5050104;28;20057;-77
2022/08/27 14:52:57;;;;;;;4.75;1.52;;;;;;;;;;5051070;28;20037;-76
2022/08/27 14:55:23;;;;;;;6.55;1.80;;;;;;;;;;5050386;28;20033;-75
2022/08/27 14:57:50;;;;;;;7.85;2.45;;;;;;;;;;5034503;28;20037;-76
2022/08/27 15:00:16;;;;;;;7.32;3.28;;;;;;;;;;5033845;28;20036;-76
2022/08/27 15:02:45;;;;;;;9.57;3.53;;;;;;;;;;5051123;28;20039;-76
2022/08/27 15:05:11;;;;;;;15.32;6.78;;;;;;;;;;5050729;28;20449;-76